createdAt,value
2018-08-16T00:01:10.673Z,22.34
2018-08-16T00:03:38.719Z,22.34
2018-08-16T00:06:06.767Z,22.31
2018-08-16T00:08:35.156Z,22.30
2018-08-16T00:11:03.202Z,22.28
2018-08-16T00:13:31.248Z,22.28
2018-08-16T00:15:59.450Z,22.27
2018-08-16T00:18:27.904Z,22.27
2018-08-16T00:20:56.012Z,22.26
2018-08-16T00:23:24.071Z,22.25
2018-08-16T00:25:52.136Z,22.25
2018-08-16T00:28:20.236Z,22.24
2018-08-16T00:30:48.316Z,22.23
2018-08-16T00:33:16.424Z,22.23
2018-08-16T00:35:44.482Z,22.22
2018-08-16T00:38:12.570Z,22.22
2018-08-16T00:40:40.851Z,22.19
2018-08-16T00:43:08.927Z,22.19
2018-08-16T00:45:37.138Z,22.19
2018-08-16T00:48:05.225Z,22.18
2018-08-16T00:50:33.286Z,22.17
2018-08-16T00:53:01.347Z,22.15
2018-08-16T00:55:29.442Z,22.16
2018-08-16T00:57:57.884Z,22.16
2018-08-16T01:00:25.980Z,22.15
2018-08-16T01:02:54.155Z,22.15
2018-08-16T01:05:22.281Z,22.13
2018-08-16T01:07:50.319Z,22.13
2018-08-16T01:10:18.489Z,22.10
2018-08-16T01:12:46.644Z,22.10
2018-08-16T01:15:16.282Z,22.10
2018-08-16T01:17:44.366Z,22.09
2018-08-16T01:20:12.449Z,22.07
2018-08-16T01:22:40.567Z,22.07
2018-08-16T01:25:09.745Z,22.06
2018-08-16T01:27:38.199Z,22.05
2018-08-16T01:30:07.578Z,22.03
2018-08-16T01:32:35.705Z,22.02
2018-08-16T01:35:04.140Z,22.00
2018-08-16T01:37:32.198Z,21.98
2018-08-16T01:40:00.265Z,21.97
2018-08-16T01:42:28.333Z,21.95
2018-08-16T01:44:56.564Z,21.92
2018-08-16T01:47:24.654Z,21.91
2018-08-16T01:49:52.705Z,21.88
2018-08-16T01:52:21.055Z,21.86
2018-08-16T01:54:49.111Z,21.83
2018-08-16T01:57:17.167Z,21.78
2018-08-16T01:59:45.282Z,21.73
2018-08-16T02:02:13.387Z,21.66
2018-08-16T02:04:41.469Z,21.64
2018-08-16T02:07:09.567Z,21.60
2018-08-16T02:09:37.662Z,21.58
2018-08-16T02:12:06.023Z,21.55
2018-08-16T02:14:34.440Z,21.53
2018-08-16T02:17:02.508Z,21.50
2018-08-16T02:19:30.623Z,21.45
2018-08-16T02:21:58.689Z,21.44
2018-08-16T02:24:26.755Z,21.40
2018-08-16T02:26:54.829Z,21.37
2018-08-16T02:29:22.896Z,21.35
2018-08-16T02:31:50.969Z,21.30
2018-08-16T02:34:19.040Z,21.25
2018-08-16T02:36:47.087Z,21.20
2018-08-16T02:39:15.169Z,21.17
2018-08-16T02:41:43.215Z,21.11
2018-08-16T02:44:11.290Z,21.08
2018-08-16T02:46:39.374Z,21.04
2018-08-16T02:49:07.474Z,21.00
2018-08-16T02:51:35.533Z,20.96
2018-08-16T02:54:03.647Z,20.91
2018-08-16T02:56:31.746Z,20.86
2018-08-16T02:58:59.813Z,20.81
2018-08-16T03:01:27.892Z,20.78
2018-08-16T03:03:56.040Z,20.73
2018-08-16T03:06:24.120Z,20.72
2018-08-16T03:08:58.583Z,20.67
2018-08-16T03:11:26.754Z,20.65
2018-08-16T03:13:54.822Z,20.60
2018-08-16T03:16:22.914Z,20.56
2018-08-16T03:18:50.985Z,20.52
2018-08-16T03:21:19.072Z,20.45
2018-08-16T03:23:47.147Z,20.41
2018-08-16T03:26:15.212Z,20.36
2018-08-16T03:28:43.282Z,20.32
2018-08-16T03:31:11.409Z,20.29
2018-08-16T03:33:39.517Z,20.26
2018-08-16T03:36:07.598Z,20.23
2018-08-16T03:38:35.665Z,20.19
2018-08-16T03:41:03.749Z,20.16
2018-08-16T03:43:37.458Z,20.13
2018-08-16T03:46:05.519Z,20.09
2018-08-16T03:48:33.609Z,20.06
2018-08-16T03:51:01.700Z,20.02
2018-08-16T03:53:29.988Z,20.00
2018-08-16T03:55:58.063Z,19.99
2018-08-16T03:58:26.124Z,19.97
2018-08-16T04:00:54.206Z,19.95
2018-08-16T04:03:22.315Z,19.93
2018-08-16T04:05:50.415Z,19.89
2018-08-16T04:08:18.493Z,19.86
2018-08-16T04:10:46.579Z,19.83
2018-08-16T04:13:14.981Z,19.80
2018-08-16T04:15:43.056Z,19.76
2018-08-16T04:18:11.129Z,19.74
2018-08-16T04:20:39.221Z,19.70
2018-08-16T04:23:07.308Z,19.66
2018-08-16T04:25:35.380Z,19.65
2018-08-16T04:28:03.694Z,19.63
2018-08-16T04:30:31.805Z,19.60
2018-08-16T04:35:34.627Z,19.61
2018-08-16T04:38:02.683Z,19.64
2018-08-16T04:40:30.752Z,19.67
2018-08-16T04:42:58.832Z,19.68
2018-08-16T04:45:26.919Z,19.70
2018-08-16T04:47:55.035Z,19.92
2018-08-16T04:50:23.226Z,20.15
2018-08-16T04:52:51.311Z,20.43
2018-08-16T04:55:19.445Z,20.71
2018-08-16T04:57:47.527Z,20.96
2018-08-16T05:00:15.653Z,21.29
2018-08-16T05:02:43.733Z,21.68
2018-08-16T05:05:11.818Z,22.04
2018-08-16T05:07:39.947Z,22.33
2018-08-16T05:10:09.409Z,22.61
2018-08-16T05:12:37.509Z,22.92
2018-08-16T05:15:08.159Z,23.28
2018-08-16T05:17:36.241Z,23.64
2018-08-16T05:20:06.141Z,23.98
2018-08-16T05:22:34.236Z,24.37
2018-08-16T05:25:02.342Z,24.66
2018-08-16T05:27:30.427Z,24.93
2018-08-16T05:29:58.542Z,25.20
2018-08-16T05:32:27.431Z,25.44
2018-08-16T05:34:55.532Z,25.73
2018-08-16T05:37:23.603Z,26.05
2018-08-16T05:39:51.700Z,26.30
2018-08-16T05:42:19.865Z,26.38
2018-08-16T05:44:47.962Z,26.57
2018-08-16T05:47:16.108Z,26.81
2018-08-16T05:49:44.230Z,27.12
2018-08-16T05:52:12.317Z,27.47
2018-08-16T05:54:40.427Z,27.70
2018-08-16T05:57:08.521Z,27.89
2018-08-16T05:59:36.602Z,27.98
2018-08-16T06:02:05.323Z,28.03
2018-08-16T06:04:33.394Z,28.31
2018-08-16T06:07:01.519Z,28.60
2018-08-16T06:09:29.656Z,28.86
2018-08-16T06:11:57.691Z,29.03
2018-08-16T06:14:26.039Z,29.09
2018-08-16T06:16:54.120Z,29.05
2018-08-16T06:19:22.189Z,29.13
2018-08-16T06:21:50.275Z,29.50
2018-08-16T06:24:18.382Z,29.78
2018-08-16T06:26:46.527Z,30.04
2018-08-16T06:29:14.637Z,30.17
2018-08-16T06:31:42.815Z,30.36
2018-08-16T06:34:10.904Z,30.45
2018-08-16T06:36:38.980Z,30.71
2018-08-16T06:39:09.496Z,30.93
2018-08-16T06:41:37.843Z,31.16
2018-08-16T06:44:05.914Z,31.39
2018-08-16T06:46:34.091Z,31.65
2018-08-16T06:49:02.191Z,31.63
2018-08-16T06:51:30.297Z,31.71
2018-08-16T06:53:58.404Z,31.91
2018-08-16T06:56:26.503Z,31.91
2018-08-16T06:58:54.615Z,32.09
2018-08-16T07:01:22.706Z,32.10
2018-08-16T07:03:50.828Z,32.21
2018-08-16T07:06:18.953Z,32.41
2018-08-16T07:08:47.048Z,32.41
2018-08-16T07:11:15.322Z,32.32
2018-08-16T07:13:43.379Z,32.55
2018-08-16T07:16:11.603Z,32.84
2018-08-16T07:18:39.765Z,33.10
2018-08-16T07:21:08.231Z,33.17
2018-08-16T07:23:36.336Z,33.12
2018-08-16T07:26:05.459Z,33.02
2018-08-16T07:28:33.619Z,33.18
2018-08-16T07:31:01.705Z,33.09
2018-08-16T07:33:30.127Z,33.25
2018-08-16T07:35:58.191Z,33.18
2018-08-16T07:38:26.262Z,33.31
2018-08-16T07:40:54.439Z,33.35
2018-08-16T07:43:22.515Z,33.34
2018-08-16T07:45:50.849Z,33.33
2018-08-16T07:48:18.732Z,33.29
2018-08-16T07:50:46.822Z,33.14
2018-08-16T07:53:15.275Z,33.01
2018-08-16T07:55:43.476Z,32.88
2018-08-16T07:58:11.556Z,33.13
2018-08-16T08:00:39.663Z,33.21
2018-08-16T08:03:07.780Z,33.37
2018-08-16T08:05:35.892Z,33.48
2018-08-16T08:08:03.963Z,33.43
2018-08-16T08:10:32.085Z,33.25
2018-08-16T08:13:00.184Z,33.29
2018-08-16T08:15:28.323Z,33.16
2018-08-16T08:17:56.852Z,33.19
2018-08-16T08:20:24.951Z,33.21
2018-08-16T08:22:53.005Z,33.25
2018-08-16T08:25:21.113Z,33.06
2018-08-16T08:27:49.207Z,33.18
2018-08-16T08:30:17.569Z,33.17
2018-08-16T08:32:45.668Z,33.04
2018-08-16T08:35:13.789Z,33.05
2018-08-16T08:37:53.273Z,33.02
2018-08-16T08:40:21.375Z,32.90
2018-08-16T08:42:49.481Z,32.69
2018-08-16T08:45:17.595Z,32.71
2018-08-16T08:47:47.050Z,32.69
2018-08-16T08:50:15.476Z,32.70
2018-08-16T08:52:43.750Z,32.39
2018-08-16T08:55:23.181Z,32.30
2018-08-16T08:58:04.160Z,32.05
2018-08-16T09:00:32.241Z,31.95
2018-08-16T09:03:00.320Z,31.65
2018-08-16T09:05:28.395Z,31.50
2018-08-16T09:07:56.480Z,31.54
2018-08-16T09:11:19.628Z,31.33
2018-08-16T09:14:06.602Z,31.27
2018-08-16T09:16:35.947Z,31.41
2018-08-16T09:19:04.588Z,31.29
2018-08-16T09:21:33.242Z,31.55
2018-08-16T09:24:01.411Z,31.59
2018-08-16T09:26:34.796Z,31.89
2018-08-16T09:29:05.452Z,32.01
2018-08-16T09:31:45.170Z,32.22
2018-08-16T09:34:19.179Z,32.40
2018-08-16T09:36:47.275Z,32.56
2018-08-16T09:39:15.393Z,32.69
2018-08-16T09:41:43.417Z,32.74
2018-08-16T09:44:11.763Z,32.72
2018-08-16T09:47:07.844Z,32.67
2018-08-16T09:49:37.652Z,32.24
2018-08-16T09:52:06.511Z,31.67
2018-08-16T09:54:34.972Z,31.09
2018-08-16T09:57:04.160Z,30.69
2018-08-16T09:59:32.250Z,30.51
2018-08-16T10:02:00.694Z,30.26
2018-08-16T10:04:29.141Z,30.02
2018-08-16T10:06:57.412Z,29.80
2018-08-16T10:09:26.859Z,29.56
2018-08-16T10:11:55.748Z,29.36
2018-08-16T10:14:23.849Z,29.27
2018-08-16T10:16:51.976Z,29.11
2018-08-16T10:19:20.198Z,28.94
2018-08-16T10:21:48.283Z,28.94
2018-08-16T10:24:16.411Z,28.84
2018-08-16T10:26:44.483Z,28.77
2018-08-16T10:29:12.957Z,28.64
2018-08-16T10:31:41.237Z,28.65
2018-08-16T10:34:09.335Z,28.65
2018-08-16T10:36:37.427Z,28.72
2018-08-16T10:39:09.080Z,28.70
2018-08-16T10:41:37.328Z,28.59
2018-08-16T10:44:05.474Z,28.60
2018-08-16T10:46:33.551Z,28.57
2018-08-16T10:49:01.643Z,28.63
2018-08-16T10:51:30.125Z,28.65
2018-08-16T10:53:58.214Z,28.59
2018-08-16T10:56:26.440Z,28.61
2018-08-16T10:58:54.895Z,28.65
2018-08-16T11:01:23.028Z,28.64
2018-08-16T11:03:51.033Z,28.56
2018-08-16T11:06:19.447Z,28.61
2018-08-16T11:08:47.548Z,28.70
2018-08-16T11:11:15.612Z,28.78
2018-08-16T11:13:43.697Z,28.80
2018-08-16T11:16:11.831Z,28.84
2018-08-16T11:18:39.939Z,28.87
2018-08-16T11:21:08.037Z,28.90
2018-08-16T11:23:36.116Z,28.96
2018-08-16T11:26:04.216Z,28.99
2018-08-16T11:28:32.293Z,29.06
2018-08-16T11:31:00.482Z,29.06
2018-08-16T11:33:28.599Z,29.12
2018-08-16T11:35:56.693Z,29.04
2018-08-16T11:38:24.784Z,29.04
2018-08-16T11:40:52.863Z,29.05
2018-08-16T11:43:20.967Z,29.16
2018-08-16T11:45:49.079Z,29.19
2018-08-16T11:48:17.174Z,29.24
2018-08-16T11:50:45.504Z,29.26
2018-08-16T11:53:13.686Z,29.31
2018-08-16T11:55:41.770Z,29.30
2018-08-16T11:58:09.913Z,29.38
2018-08-16T12:00:37.992Z,29.39
2018-08-16T12:03:06.411Z,29.47
2018-08-16T12:05:34.493Z,29.47
2018-08-16T12:08:02.798Z,29.48
2018-08-16T12:10:30.889Z,29.49
2018-08-16T12:12:58.972Z,29.42
2018-08-16T12:15:27.116Z,29.37
2018-08-16T12:17:55.188Z,29.41
2018-08-16T12:20:23.617Z,29.46
2018-08-16T12:22:51.733Z,29.59
2018-08-16T12:25:19.864Z,29.59
2018-08-16T12:27:48.253Z,29.48
2018-08-16T12:30:16.324Z,29.48
2018-08-16T12:32:44.410Z,29.56
2018-08-16T12:35:12.532Z,29.53
2018-08-16T12:37:40.774Z,29.58
2018-08-16T12:40:09.223Z,29.62
2018-08-16T12:42:37.320Z,29.67
2018-08-16T12:45:05.787Z,29.73
2018-08-16T12:47:33.899Z,29.73
2018-08-16T12:50:01.968Z,29.76
2018-08-16T12:52:30.088Z,29.77
2018-08-16T12:54:58.588Z,29.75
2018-08-16T12:57:26.685Z,29.76
2018-08-16T12:59:54.799Z,29.77
2018-08-16T13:02:22.949Z,29.77
2018-08-16T13:04:51.100Z,29.81
2018-08-16T13:07:19.239Z,29.86
2018-08-16T13:09:47.379Z,29.84
2018-08-16T13:12:15.448Z,29.93
2018-08-16T13:14:43.719Z,29.95
2018-08-16T13:17:11.788Z,29.97
2018-08-16T13:19:39.896Z,29.97
2018-08-16T13:22:07.968Z,30.05
2018-08-16T13:24:36.045Z,30.12
2018-08-16T13:27:04.215Z,30.14
2018-08-16T13:29:32.401Z,30.27
2018-08-16T13:32:00.705Z,30.32
2018-08-16T13:34:28.744Z,30.27
2018-08-16T13:36:56.883Z,30.22
2018-08-16T13:39:25.010Z,30.21
2018-08-16T13:41:53.230Z,30.17
2018-08-16T13:44:21.313Z,30.20
2018-08-16T13:46:49.535Z,30.21
2018-08-16T13:49:17.682Z,30.20
2018-08-16T13:51:45.829Z,30.25
2018-08-16T13:54:13.887Z,30.23
2018-08-16T13:56:41.972Z,30.29
2018-08-16T13:59:10.052Z,30.33
2018-08-16T14:01:38.185Z,30.34
2018-08-16T14:04:06.600Z,30.38
2018-08-16T14:06:34.667Z,30.41
2018-08-16T14:09:02.755Z,30.44
2018-08-16T14:11:30.888Z,30.46
2018-08-16T14:13:59.116Z,30.45
2018-08-16T14:16:27.496Z,30.59
2018-08-16T14:18:55.569Z,30.62
2018-08-16T14:24:01.521Z,30.62
2018-08-16T14:26:29.612Z,30.66
2018-08-16T14:28:57.767Z,30.68
2018-08-16T14:31:26.108Z,30.71
2018-08-16T14:33:54.350Z,30.76
2018-08-16T14:36:22.592Z,30.78
2018-08-16T14:38:50.770Z,30.75
2018-08-16T14:41:18.768Z,30.77
2018-08-16T14:43:47.020Z,30.77
2018-08-16T14:46:15.145Z,30.76
2018-08-16T14:48:43.225Z,30.80
2018-08-16T14:51:11.375Z,30.83
2018-08-16T14:53:39.414Z,30.90
2018-08-16T14:56:07.663Z,30.92
2018-08-16T14:58:35.785Z,30.86
2018-08-16T15:01:04.260Z,30.88
2018-08-16T15:03:32.387Z,30.81
2018-08-16T15:06:00.533Z,30.81
2018-08-16T15:08:28.876Z,30.85
2018-08-16T15:10:56.981Z,30.83
2018-08-16T15:13:25.395Z,30.87
2018-08-16T15:15:53.510Z,30.82
2018-08-16T15:18:21.631Z,30.86
2018-08-16T15:20:49.866Z,30.87
2018-08-16T15:23:17.972Z,30.87
2018-08-16T15:25:46.233Z,30.88
2018-08-16T15:28:14.566Z,30.90
2018-08-16T15:30:42.636Z,30.91
2018-08-16T15:33:10.707Z,30.91
2018-08-16T15:35:39.096Z,30.87
2018-08-16T15:38:07.176Z,30.89
2018-08-16T15:40:35.436Z,30.87
2018-08-16T15:43:03.634Z,30.89
2018-08-16T15:45:31.747Z,30.88
2018-08-16T15:47:59.922Z,30.86
2018-08-16T15:50:27.984Z,30.85
2018-08-16T15:52:56.097Z,30.78
2018-08-16T15:55:24.278Z,30.73
2018-08-16T15:57:52.455Z,30.61
2018-08-16T16:00:20.616Z,30.61
2018-08-16T16:02:48.777Z,30.55
2018-08-16T16:05:16.918Z,30.52
2018-08-16T16:07:45.271Z,30.47
2018-08-16T16:10:13.346Z,30.46
2018-08-16T16:12:41.457Z,30.48
2018-08-16T16:15:10.258Z,30.45
2018-08-16T16:17:38.605Z,30.44
2018-08-16T16:20:07.053Z,30.41
2018-08-16T16:22:35.311Z,30.39
2018-08-16T16:25:03.419Z,30.35
2018-08-16T16:27:31.828Z,30.35
2018-08-16T16:29:59.924Z,30.35
2018-08-16T16:32:28.006Z,30.32
2018-08-16T16:34:56.102Z,30.15
2018-08-16T16:37:24.387Z,30.16
2018-08-16T16:39:52.898Z,30.13
2018-08-16T16:42:20.988Z,30.11
2018-08-16T16:44:49.140Z,30.12
2018-08-16T16:47:17.257Z,30.04
2018-08-16T16:52:26.579Z,29.98
2018-08-16T16:54:54.772Z,29.72
2018-08-16T16:57:22.972Z,29.60
2018-08-16T16:59:51.117Z,29.54
2018-08-16T17:02:19.187Z,29.38
2018-08-16T17:04:47.315Z,29.19
2018-08-16T17:07:15.770Z,29.18
2018-08-16T17:09:43.836Z,29.25
2018-08-16T17:12:11.934Z,29.26
2018-08-16T17:14:40.055Z,29.23
2018-08-16T17:17:08.463Z,29.11
2018-08-16T17:19:36.644Z,29.01
2018-08-16T17:22:04.728Z,29.02
2018-08-16T17:24:32.805Z,28.96
2018-08-16T17:27:01.629Z,28.89
2018-08-16T17:29:30.236Z,28.75
2018-08-16T17:31:58.355Z,28.72
2018-08-16T17:34:26.412Z,28.66
2018-08-16T17:36:54.718Z,28.44
2018-08-16T17:39:22.835Z,28.37
2018-08-16T17:41:51.253Z,28.38
2018-08-16T17:44:19.401Z,28.33
2018-08-16T17:46:47.632Z,28.33
2018-08-16T17:49:15.784Z,28.27
2018-08-16T17:51:43.929Z,28.16
2018-08-16T17:54:12.364Z,28.00
2018-08-16T17:56:40.459Z,27.99
2018-08-16T17:59:08.860Z,27.82
2018-08-16T18:01:37.014Z,27.76
2018-08-16T18:04:05.368Z,27.68
2018-08-16T18:06:33.627Z,27.57
2018-08-16T18:09:02.043Z,27.51
2018-08-16T18:11:30.372Z,27.44
2018-08-16T18:13:58.640Z,27.37
2018-08-16T18:16:26.736Z,27.26
2018-08-16T18:18:54.868Z,27.19
2018-08-16T18:21:23.131Z,27.13
2018-08-16T18:23:51.221Z,27.06
2018-08-16T18:26:19.472Z,26.98
2018-08-16T18:28:47.872Z,26.89
2018-08-16T18:31:16.067Z,26.81
2018-08-16T18:33:44.256Z,26.73
2018-08-16T18:36:12.703Z,26.66
2018-08-16T18:38:40.875Z,26.56
2018-08-16T18:41:09.273Z,26.47
2018-08-16T18:43:37.677Z,26.40
2018-08-16T18:46:06.072Z,26.26
2018-08-16T18:48:34.374Z,26.20
2018-08-16T18:51:02.494Z,26.14
2018-08-16T18:53:30.683Z,26.07
2018-08-16T18:55:58.806Z,26.01
2018-08-16T18:58:27.095Z,25.95
2018-08-16T19:00:55.228Z,25.86
2018-08-16T19:03:23.515Z,25.80
2018-08-16T19:05:51.733Z,25.73
2018-08-16T19:08:19.763Z,25.66
2018-08-16T19:10:47.858Z,25.54
2018-08-16T19:13:15.983Z,25.46
2018-08-16T19:15:44.115Z,25.17
2018-08-16T19:18:12.516Z,25.17
2018-08-16T19:20:40.613Z,25.04
2018-08-16T19:23:08.864Z,24.95
2018-08-16T19:25:36.975Z,24.86
2018-08-16T19:28:05.334Z,24.73
2018-08-16T19:30:33.443Z,24.58
2018-08-16T19:33:01.516Z,24.43
2018-08-16T19:35:29.858Z,24.46
2018-08-16T19:37:58.064Z,24.30
2018-08-16T19:40:26.406Z,24.28
2018-08-16T19:42:54.600Z,24.17
2018-08-16T19:45:22.980Z,24.08
2018-08-16T19:47:51.222Z,23.96
2018-08-16T19:50:19.272Z,23.94
2018-08-16T19:52:47.798Z,23.92
2018-08-16T19:55:15.979Z,23.84
2018-08-16T19:57:44.132Z,23.74
2018-08-16T20:00:12.233Z,23.64
2018-08-16T20:02:40.325Z,23.52
2018-08-16T20:05:08.402Z,23.51
2018-08-16T20:07:36.868Z,23.51
2018-08-16T20:10:05.971Z,23.50
2018-08-16T20:12:34.225Z,23.30
2018-08-16T20:15:02.492Z,23.25
2018-08-16T20:17:30.759Z,23.28
2018-08-16T20:19:58.909Z,23.26
2018-08-16T20:22:27.023Z,23.23
2018-08-16T20:24:56.021Z,23.14
2018-08-16T20:27:25.212Z,23.13
2018-08-16T20:29:53.513Z,23.14
2018-08-16T20:32:52.488Z,23.11
2018-08-16T20:35:20.621Z,22.99
2018-08-16T20:37:48.762Z,22.91
2018-08-16T20:40:16.858Z,22.91
2018-08-16T20:42:44.937Z,22.90
2018-08-16T20:45:13.024Z,22.90
2018-08-16T20:47:41.104Z,22.86
2018-08-16T20:50:09.187Z,22.84
2018-08-16T20:52:37.646Z,22.75
2018-08-16T20:55:05.973Z,22.72
2018-08-16T20:57:34.088Z,22.69
2018-08-16T21:00:02.169Z,22.68
2018-08-16T21:02:30.273Z,22.64
2018-08-16T21:04:58.407Z,22.61
2018-08-16T21:07:26.489Z,22.55
2018-08-16T21:09:54.596Z,22.52
2018-08-16T21:12:22.695Z,22.49
2018-08-16T21:14:50.798Z,22.44
2018-08-16T21:17:18.914Z,22.42
2018-08-16T21:19:47.052Z,22.37
2018-08-16T21:22:15.186Z,22.33
2018-08-16T21:24:43.335Z,22.30
2018-08-16T21:27:11.450Z,22.27
2018-08-16T21:29:39.553Z,22.22
2018-08-16T21:32:07.715Z,22.20
2018-08-16T21:34:35.860Z,22.16
2018-08-16T21:37:03.938Z,22.13
2018-08-16T21:39:32.045Z,22.11
2018-08-16T21:42:00.143Z,22.07
2018-08-16T21:44:28.649Z,22.02
2018-08-16T21:46:56.716Z,21.97
2018-08-16T21:49:24.801Z,21.95
2018-08-16T21:51:52.893Z,21.92
2018-08-16T21:54:20.976Z,21.88
2018-08-16T21:56:49.084Z,21.86
2018-08-16T21:59:17.141Z,21.82
2018-08-16T22:01:45.213Z,21.77
2018-08-16T22:04:13.308Z,21.71
2018-08-16T22:06:52.777Z,21.65
2018-08-16T22:09:20.892Z,21.61
2018-08-16T22:11:49.024Z,21.57
2018-08-16T22:14:17.093Z,21.53
2018-08-16T22:16:45.165Z,21.51
2018-08-16T22:19:13.277Z,21.46
2018-08-16T22:21:41.368Z,21.43
2018-08-16T22:24:09.442Z,21.39
2018-08-16T22:26:37.565Z,21.36
2018-08-16T22:29:05.720Z,21.32
2018-08-16T22:31:33.855Z,21.28
2018-08-16T22:34:01.975Z,21.25
2018-08-16T22:36:30.097Z,21.23
2018-08-16T22:38:58.133Z,21.20
2018-08-16T22:41:26.313Z,21.17
2018-08-16T22:43:54.458Z,21.16
2018-08-16T22:46:22.582Z,21.12
2018-08-16T22:48:50.641Z,21.11
2018-08-16T22:51:18.746Z,21.08
2018-08-16T22:53:46.876Z,20.99
2018-08-16T22:56:15.018Z,20.96
2018-08-16T22:58:43.084Z,20.94
2018-08-16T23:01:11.424Z,20.92
2018-08-16T23:03:39.520Z,20.88
2018-08-16T23:06:07.668Z,20.87
2018-08-16T23:08:35.757Z,20.85
2018-08-16T23:11:03.892Z,20.82
2018-08-16T23:13:32.030Z,20.80
2018-08-16T23:16:00.166Z,20.77
2018-08-16T23:18:28.274Z,20.75
2018-08-16T23:20:56.376Z,20.70
2018-08-16T23:23:24.519Z,20.64
2018-08-16T23:25:52.613Z,20.59
2018-08-16T23:28:20.678Z,20.57
2018-08-16T23:30:48.804Z,20.56
2018-08-16T23:33:16.926Z,20.56
2018-08-16T23:35:45.021Z,20.54
2018-08-16T23:38:13.117Z,20.53
2018-08-16T23:40:41.199Z,20.53
2018-08-16T23:43:09.288Z,20.51
2018-08-16T23:45:37.738Z,20.50
2018-08-16T23:48:17.361Z,20.45
2018-08-16T23:50:45.456Z,20.41
2018-08-16T23:53:13.553Z,20.38
2018-08-16T23:55:41.663Z,20.32
2018-08-16T23:58:09.774Z,20.26
